KBDL/BDL METAR and TAF weather

Enter ICAO airport designator
Station Type Date Time Source
KBDL METAR 2022/12/02 23:51 UTC NOAA

KBDL 022351Z 17006KT 10SM BKN120 BKN200 04/M03 A3046 RMK AO2 SLP316 T00391028 10072 20039 50001


Station Type Date Time Source
KBDL Decoded METAR 2022/12/02 23:51 UTC NOAA

BRADLEY INTERNATIONAL AIRPORT , CT, United States (KBDL) 41-56N 072-41W 60M
Dec 02, 2022 - 06:51 PM EST / 2022.12.02 2351 UTC
Wind: from the S (170 degrees) at 7 MPH (6 KT):0
Visibility: 10 mile(s):0
Sky conditions: mostly cloudy
Temperature: 39.0 F (3.9 C)
Dew Point: 27.0 F (-2.8 C)
Relative Humidity: 61%
Pressure (altimeter): 30.46 in. Hg (1031 hPa)
Pressure tendency: 0.00 inches (0.1 hPa) higher than three hours ago
ob: KBDL 022351Z 17006KT 10SM BKN120 BKN200 04/M03 A3046 RMK AO2 SLP316 T00391028 10072 20039 50001
cycle: 0

Station Type Date Time Source
KBDL TAF 2022/12/02 21:06 UTC NOAA

TAF
AMD KBDL 022103Z 0221/0324 19006KT P6SM FEW250
FM031200 19010G20KT P6SM VCSH OVC030
FM031400 20012G25KT 5SM -RA BR OVC015
FM031700 21015G30KT 3SM -RA BR OVC008
FM032200 23014G24KT 6SM -RA BR OVC050

Example: see airport list